sensor_id;sensor_type;location;lat;lon;timestamp;P1;durP1;ratioP1;P2;durP2;ratioP2
35592;SDS011;64447;52.140;5.602;2023-07-13T00:01:03;8.27;;;3.35;;
35592;SDS011;64447;52.140;5.602;2023-07-13T00:03:29;10.70;;;3.23;;
35592;SDS011;64447;52.140;5.602;2023-07-13T00:06:00;11.48;;;3.55;;
35592;SDS011;64447;52.140;5.602;2023-07-13T00:08:29;10.10;;;3.70;;
35592;SDS011;64447;52.140;5.602;2023-07-13T00:10:55;7.55;;;3.20;;
35592;SDS011;64447;52.140;5.602;2023-07-13T00:13:21;9.27;;;3.40;;
35592;SDS011;64447;52.140;5.602;2023-07-13T00:15:47;11.55;;;3.38;;
35592;SDS011;64447;52.140;5.602;2023-07-13T00:18:12;8.27;;;3.30;;
35592;SDS011;64447;52.140;5.602;2023-07-13T00:20:38;8.87;;;3.40;;
35592;SDS011;64447;52.140;5.602;2023-07-13T00:23:06;7.65;;;3.17;;
35592;SDS011;64447;52.140;5.602;2023-07-13T00:25:32;9.93;;;3.40;;
35592;SDS011;64447;52.140;5.602;2023-07-13T00:27:57;6.23;;;2.93;;
35592;SDS011;64447;52.140;5.602;2023-07-13T00:30:23;9.17;;;3.40;;
35592;SDS011;64447;52.140;5.602;2023-07-13T00:32:49;8.25;;;3.28;;
35592;SDS011;64447;52.140;5.602;2023-07-13T00:35:15;6.90;;;3.20;;
35592;SDS011;64447;52.140;5.602;2023-07-13T00:37:41;7.43;;;3.17;;
35592;SDS011;64447;52.140;5.602;2023-07-13T00:40:07;8.35;;;3.47;;
35592;SDS011;64447;52.140;5.602;2023-07-13T00:42:33;7.00;;;3.40;;
35592;SDS011;64447;52.140;5.602;2023-07-13T00:45:06;10.35;;;3.25;;
35592;SDS011;64447;52.140;5.602;2023-07-13T00:47:39;7.32;;;3.28;;
35592;SDS011;64447;52.140;5.602;2023-07-13T00:50:06;9.05;;;3.40;;
35592;SDS011;64447;52.140;5.602;2023-07-13T00:52:35;7.50;;;3.47;;
35592;SDS011;64447;52.140;5.602;2023-07-13T00:55:03;8.93;;;3.35;;
35592;SDS011;64447;52.140;5.602;2023-07-13T00:57:30;6.23;;;3.33;;
35592;SDS011;64447;52.140;5.602;2023-07-13T00:59:57;9.00;;;4.10;;
35592;SDS011;64447;52.140;5.602;2023-07-13T01:02:32;9.65;;;3.47;;
35592;SDS011;64447;52.140;5.602;2023-07-13T01:04:58;8.02;;;3.50;;
35592;SDS011;64447;52.140;5.602;2023-07-13T01:07:24;8.97;;;3.30;;
35592;SDS011;64447;52.140;5.602;2023-07-13T01:12:20;8.30;;;3.17;;
35592;SDS011;64447;52.140;5.602;2023-07-13T01:14:46;6.13;;;3.00;;
35592;SDS011;64447;52.140;5.602;2023-07-13T01:17:11;6.27;;;2.80;;
35592;SDS011;64447;52.140;5.602;2023-07-13T01:19:45;10.77;;;3.40;;
35592;SDS011;64447;52.140;5.602;2023-07-13T01:22:12;6.25;;;2.95;;
35592;SDS011;64447;52.140;5.602;2023-07-13T01:24:43;6.90;;;3.08;;
35592;SDS011;64447;52.140;5.602;2023-07-13T01:27:14;7.40;;;3.23;;
35592;SDS011;64447;52.140;5.602;2023-07-13T01:29:45;6.33;;;2.80;;
35592;SDS011;64447;52.140;5.602;2023-07-13T01:32:14;6.78;;;3.10;;
35592;SDS011;64447;52.140;5.602;2023-07-13T01:34:42;8.32;;;3.40;;
35592;SDS011;64447;52.140;5.602;2023-07-13T01:37:09;6.70;;;3.30;;
35592;SDS011;64447;52.140;5.602;2023-07-13T01:39:36;7.65;;;3.13;;
35592;SDS011;64447;52.140;5.602;2023-07-13T01:42:02;11.77;;;3.65;;
35592;SDS011;64447;52.140;5.602;2023-07-13T01:44:28;11.45;;;3.47;;
35592;SDS011;64447;52.140;5.602;2023-07-13T01:46:54;7.65;;;3.40;;
35592;SDS011;64447;52.140;5.602;2023-07-13T01:49:20;8.05;;;3.47;;
35592;SDS011;64447;52.140;5.602;2023-07-13T01:51:46;8.23;;;4.07;;
35592;SDS011;64447;52.140;5.602;2023-07-13T01:54:11;6.88;;;3.20;;
35592;SDS011;64447;52.140;5.602;2023-07-13T01:56:37;10.33;;;3.30;;
35592;SDS011;64447;52.140;5.602;2023-07-13T01:59:03;5.83;;;3.47;;
35592;SDS011;64447;52.140;5.602;2023-07-13T02:01:29;10.52;;;3.63;;
35592;SDS011;64447;52.140;5.602;2023-07-13T02:03:55;7.97;;;3.20;;
35592;SDS011;64447;52.140;5.602;2023-07-13T02:06:20;10.88;;;3.63;;
35592;SDS011;64447;52.140;5.602;2023-07-13T02:08:46;10.30;;;3.63;;
35592;SDS011;64447;52.140;5.602;2023-07-13T02:11:11;8.93;;;3.28;;
35592;SDS011;64447;52.140;5.602;2023-07-13T02:13:37;7.17;;;3.47;;
35592;SDS011;64447;52.140;5.602;2023-07-13T02:16:03;7.97;;;3.40;;
35592;SDS011;64447;52.140;5.602;2023-07-13T02:18:29;6.80;;;3.60;;
35592;SDS011;64447;52.140;5.602;2023-07-13T02:20:55;7.27;;;3.57;;
35592;SDS011;64447;52.140;5.602;2023-07-13T02:23:20;9.25;;;3.80;;
35592;SDS011;64447;52.140;5.602;2023-07-13T02:25:46;9.73;;;3.70;;
35592;SDS011;64447;52.140;5.602;2023-07-13T02:28:11;8.80;;;3.40;;
35592;SDS011;64447;52.140;5.602;2023-07-13T02:30:37;9.77;;;3.53;;
35592;SDS011;64447;52.140;5.602;2023-07-13T02:33:03;8.00;;;3.60;;
35592;SDS011;64447;52.140;5.602;2023-07-13T02:35:30;9.10;;;3.70;;
35592;SDS011;64447;52.140;5.602;2023-07-13T02:37:56;9.63;;;4.23;;
35592;SDS011;64447;52.140;5.602;2023-07-13T02:40:21;12.43;;;4.00;;
35592;SDS011;64447;52.140;5.602;2023-07-13T02:42:47;11.17;;;4.17;;
35592;SDS011;64447;52.140;5.602;2023-07-13T02:45:12;10.35;;;4.20;;
35592;SDS011;64447;52.140;5.602;2023-07-13T02:47:39;13.65;;;4.70;;
35592;SDS011;64447;52.140;5.602;2023-07-13T02:50:06;9.73;;;3.97;;
35592;SDS011;64447;52.140;5.602;2023-07-13T02:52:32;8.03;;;3.97;;
35592;SDS011;64447;52.140;5.602;2023-07-13T02:54:58;9.43;;;4.47;;
35592;SDS011;64447;52.140;5.602;2023-07-13T02:57:24;11.00;;;4.55;;
35592;SDS011;64447;52.140;5.602;2023-07-13T02:59:50;9.70;;;4.50;;
35592;SDS011;64447;52.140;5.602;2023-07-13T03:02:15;10.95;;;4.30;;
35592;SDS011;64447;52.140;5.602;2023-07-13T03:04:41;8.63;;;4.33;;
35592;SDS011;64447;52.140;5.602;2023-07-13T03:07:07;10.05;;;4.80;;
35592;SDS011;64447;52.140;5.602;2023-07-13T03:09:33;9.98;;;4.03;;
35592;SDS011;64447;52.140;5.602;2023-07-13T03:11:59;11.70;;;4.28;;
35592;SDS011;64447;52.140;5.602;2023-07-13T03:14:24;14.23;;;4.90;;
35592;SDS011;64447;52.140;5.602;2023-07-13T03:16:50;11.87;;;4.87;;
35592;SDS011;64447;52.140;5.602;2023-07-13T03:19:16;13.30;;;5.22;;
35592;SDS011;64447;52.140;5.602;2023-07-13T03:21:43;12.30;;;4.85;;
35592;SDS011;64447;52.140;5.602;2023-07-13T03:24:09;16.93;;;5.00;;
35592;SDS011;64447;52.140;5.602;2023-07-13T03:26:34;12.45;;;4.75;;
35592;SDS011;64447;52.140;5.602;2023-07-13T03:29:00;12.03;;;5.10;;
35592;SDS011;64447;52.140;5.602;2023-07-13T03:31:26;13.18;;;4.80;;
35592;SDS011;64447;52.140;5.602;2023-07-13T03:33:54;12.82;;;5.15;;
35592;SDS011;64447;52.140;5.602;2023-07-13T03:36:22;10.65;;;4.93;;
35592;SDS011;64447;52.140;5.602;2023-07-13T03:38:50;10.38;;;4.95;;
35592;SDS011;64447;52.140;5.602;2023-07-13T03:41:18;13.02;;;5.35;;
35592;SDS011;64447;52.140;5.602;2023-07-13T03:43:44;12.40;;;5.05;;
35592;SDS011;64447;52.140;5.602;2023-07-13T03:46:10;9.00;;;4.90;;
35592;SDS011;64447;52.140;5.602;2023-07-13T03:48:36;12.40;;;4.83;;
35592;SDS011;64447;52.140;5.602;2023-07-13T03:51:02;12.57;;;5.35;;
35592;SDS011;64447;52.140;5.602;2023-07-13T03:53:27;12.68;;;5.15;;
35592;SDS011;64447;52.140;5.602;2023-07-13T03:55:53;12.30;;;5.23;;
35592;SDS011;64447;52.140;5.602;2023-07-13T03:58:30;15.13;;;5.35;;
35592;SDS011;64447;52.140;5.602;2023-07-13T04:00:58;11.82;;;5.55;;
35592;SDS011;64447;52.140;5.602;2023-07-13T04:03:25;11.43;;;5.20;;
35592;SDS011;64447;52.140;5.602;2023-07-13T04:05:52;14.90;;;5.07;;
35592;SDS011;64447;52.140;5.602;2023-07-13T04:08:19;12.98;;;5.35;;
35592;SDS011;64447;52.140;5.602;2023-07-13T04:10:44;11.07;;;4.93;;
35592;SDS011;64447;52.140;5.602;2023-07-13T04:13:10;12.90;;;5.30;;
35592;SDS011;64447;52.140;5.602;2023-07-13T04:15:36;15.27;;;5.50;;
35592;SDS011;64447;52.140;5.602;2023-07-13T04:18:02;14.13;;;5.23;;
35592;SDS011;64447;52.140;5.602;2023-07-13T04:20:28;17.30;;;5.57;;
35592;SDS011;64447;52.140;5.602;2023-07-13T04:22:54;13.20;;;4.80;;
35592;SDS011;64447;52.140;5.602;2023-07-13T04:25:20;11.98;;;4.97;;
35592;SDS011;64447;52.140;5.602;2023-07-13T04:27:46;12.75;;;5.40;;
35592;SDS011;64447;52.140;5.602;2023-07-13T04:30:12;13.63;;;5.60;;
35592;SDS011;64447;52.140;5.602;2023-07-13T04:32:38;14.90;;;5.57;;
35592;SDS011;64447;52.140;5.602;2023-07-13T04:35:03;15.23;;;5.33;;
35592;SDS011;64447;52.140;5.602;2023-07-13T04:37:29;12.95;;;5.55;;
35592;SDS011;64447;52.140;5.602;2023-07-13T04:42:28;13.00;;;5.68;;
35592;SDS011;64447;52.140;5.602;2023-07-13T04:44:55;15.85;;;5.95;;
35592;SDS011;64447;52.140;5.602;2023-07-13T04:47:21;14.70;;;5.80;;
35592;SDS011;64447;52.140;5.602;2023-07-13T04:49:46;15.05;;;5.70;;
35592;SDS011;64447;52.140;5.602;2023-07-13T04:52:12;16.07;;;5.80;;
35592;SDS011;64447;52.140;5.602;2023-07-13T04:54:38;17.15;;;5.88;;
35592;SDS011;64447;52.140;5.602;2023-07-13T04:57:04;14.38;;;5.82;;
35592;SDS011;64447;52.140;5.602;2023-07-13T04:59:33;14.75;;;6.70;;
35592;SDS011;64447;52.140;5.602;2023-07-13T05:01:59;16.50;;;6.05;;
35592;SDS011;64447;52.140;5.602;2023-07-13T05:04:26;15.67;;;6.30;;
35592;SDS011;64447;52.140;5.602;2023-07-13T05:06:52;15.83;;;6.57;;
35592;SDS011;64447;52.140;5.602;2023-07-13T05:09:18;17.20;;;6.45;;
35592;SDS011;64447;52.140;5.602;2023-07-13T05:11:43;13.77;;;6.07;;
35592;SDS011;64447;52.140;5.602;2023-07-13T05:14:09;16.90;;;6.60;;
35592;SDS011;64447;52.140;5.602;2023-07-13T05:16:35;16.88;;;6.60;;
35592;SDS011;64447;52.140;5.602;2023-07-13T05:19:01;17.20;;;6.60;;
35592;SDS011;64447;52.140;5.602;2023-07-13T05:21:27;16.90;;;6.40;;
35592;SDS011;64447;52.140;5.602;2023-07-13T05:23:53;14.67;;;6.77;;
35592;SDS011;64447;52.140;5.602;2023-07-13T05:26:19;17.17;;;6.97;;
35592;SDS011;64447;52.140;5.602;2023-07-13T05:28:45;18.95;;;7.20;;
35592;SDS011;64447;52.140;5.602;2023-07-13T05:31:11;15.43;;;7.05;;
35592;SDS011;64447;52.140;5.602;2023-07-13T05:33:37;21.23;;;7.82;;
35592;SDS011;64447;52.140;5.602;2023-07-13T05:36:02;17.83;;;8.30;;
35592;SDS011;64447;52.140;5.602;2023-07-13T05:38:28;13.57;;;7.18;;
35592;SDS011;64447;52.140;5.602;2023-07-13T05:40:54;18.50;;;8.03;;
35592;SDS011;64447;52.140;5.602;2023-07-13T05:43:21;19.48;;;7.97;;
35592;SDS011;64447;52.140;5.602;2023-07-13T05:45:47;19.25;;;8.38;;
35592;SDS011;64447;52.140;5.602;2023-07-13T05:48:14;21.38;;;8.20;;
35592;SDS011;64447;52.140;5.602;2023-07-13T05:50:40;17.20;;;8.70;;
35592;SDS011;64447;52.140;5.602;2023-07-13T05:53:06;18.67;;;8.85;;
35592;SDS011;64447;52.140;5.602;2023-07-13T05:55:32;19.20;;;8.37;;
35592;SDS011;64447;52.140;5.602;2023-07-13T05:57:58;20.05;;;9.30;;
35592;SDS011;64447;52.140;5.602;2023-07-13T06:00:25;22.00;;;9.60;;
35592;SDS011;64447;52.140;5.602;2023-07-13T06:02:51;18.20;;;9.68;;
35592;SDS011;64447;52.140;5.602;2023-07-13T06:05:17;18.60;;;9.50;;
35592;SDS011;64447;52.140;5.602;2023-07-13T06:07:42;22.23;;;10.82;;
35592;SDS011;64447;52.140;5.602;2023-07-13T06:10:08;19.73;;;10.33;;
35592;SDS011;64447;52.140;5.602;2023-07-13T06:12:34;23.15;;;11.95;;
35592;SDS011;64447;52.140;5.602;2023-07-13T06:15:00;21.67;;;11.73;;
35592;SDS011;64447;52.140;5.602;2023-07-13T06:17:25;23.43;;;12.10;;
35592;SDS011;64447;52.140;5.602;2023-07-13T06:19:51;21.98;;;11.95;;
35592;SDS011;64447;52.140;5.602;2023-07-13T06:22:17;23.83;;;12.27;;
35592;SDS011;64447;52.140;5.602;2023-07-13T06:24:42;24.13;;;12.02;;
35592;SDS011;64447;52.140;5.602;2023-07-13T06:27:08;19.07;;;11.90;;
35592;SDS011;64447;52.140;5.602;2023-07-13T06:29:34;24.13;;;12.20;;
35592;SDS011;64447;52.140;5.602;2023-07-13T06:31:59;22.87;;;12.97;;
35592;SDS011;64447;52.140;5.602;2023-07-13T06:34:25;27.00;;;12.80;;
35592;SDS011;64447;52.140;5.602;2023-07-13T06:39:16;22.63;;;12.60;;
35592;SDS011;64447;52.140;5.602;2023-07-13T06:41:41;22.95;;;13.10;;
35592;SDS011;64447;52.140;5.602;2023-07-13T06:44:07;23.27;;;13.67;;
35592;SDS011;64447;52.140;5.602;2023-07-13T06:46:32;26.38;;;14.68;;
35592;SDS011;64447;52.140;5.602;2023-07-13T06:48:58;23.03;;;14.77;;
35592;SDS011;64447;52.140;5.602;2023-07-13T06:51:24;26.93;;;14.23;;
35592;SDS011;64447;52.140;5.602;2023-07-13T06:53:50;29.80;;;15.57;;
35592;SDS011;64447;52.140;5.602;2023-07-13T06:56:16;23.05;;;15.30;;
35592;SDS011;64447;52.140;5.602;2023-07-13T06:58:42;28.03;;;14.57;;
35592;SDS011;64447;52.140;5.602;2023-07-13T07:01:08;26.48;;;14.60;;
35592;SDS011;64447;52.140;5.602;2023-07-13T07:03:34;25.63;;;15.07;;
35592;SDS011;64447;52.140;5.602;2023-07-13T07:06:03;25.83;;;15.23;;
35592;SDS011;64447;52.140;5.602;2023-07-13T07:08:47;27.02;;;14.63;;
35592;SDS011;64447;52.140;5.602;2023-07-13T07:11:18;28.80;;;14.95;;
35592;SDS011;64447;52.140;5.602;2023-07-13T07:13:47;26.13;;;15.57;;
35592;SDS011;64447;52.140;5.602;2023-07-13T07:16:13;26.48;;;15.25;;
35592;SDS011;64447;52.140;5.602;2023-07-13T07:18:38;29.60;;;15.50;;
35592;SDS011;64447;52.140;5.602;2023-07-13T07:21:04;28.40;;;15.43;;
35592;SDS011;64447;52.140;5.602;2023-07-13T07:23:30;25.77;;;15.87;;
35592;SDS011;64447;52.140;5.602;2023-07-13T07:25:55;27.30;;;15.50;;
35592;SDS011;64447;52.140;5.602;2023-07-13T07:28:21;26.03;;;15.27;;
35592;SDS011;64447;52.140;5.602;2023-07-13T07:30:47;26.50;;;15.25;;
35592;SDS011;64447;52.140;5.602;2023-07-13T07:33:14;24.30;;;15.20;;
35592;SDS011;64447;52.140;5.602;2023-07-13T07:35:41;26.57;;;15.30;;
35592;SDS011;64447;52.140;5.602;2023-07-13T07:38:07;29.55;;;16.55;;
35592;SDS011;64447;52.140;5.602;2023-07-13T07:40:36;24.13;;;15.48;;
35592;SDS011;64447;52.140;5.602;2023-07-13T07:43:05;26.20;;;15.95;;
35592;SDS011;64447;52.140;5.602;2023-07-13T07:45:32;23.63;;;16.40;;
35592;SDS011;64447;52.140;5.602;2023-07-13T07:52:54;26.15;;;16.02;;
35592;SDS011;64447;52.140;5.602;2023-07-13T07:55:23;30.10;;;16.48;;
35592;SDS011;64447;52.140;5.602;2023-07-13T08:00:16;29.15;;;16.60;;
35592;SDS011;64447;52.140;5.602;2023-07-13T08:02:42;31.25;;;15.73;;
35592;SDS011;64447;52.140;5.602;2023-07-13T08:05:09;27.35;;;15.88;;
35592;SDS011;64447;52.140;5.602;2023-07-13T08:10:01;26.92;;;15.77;;
35592;SDS011;64447;52.140;5.602;2023-07-13T08:12:27;30.40;;;16.02;;
35592;SDS011;64447;52.140;5.602;2023-07-13T08:14:53;25.48;;;14.55;;
35592;SDS011;64447;52.140;5.602;2023-07-13T08:19:44;28.58;;;13.88;;
35592;SDS011;64447;52.140;5.602;2023-07-13T08:22:10;19.95;;;12.75;;
35592;SDS011;64447;52.140;5.602;2023-07-13T08:24:36;22.30;;;12.80;;
35592;SDS011;64447;52.140;5.602;2023-07-13T08:27:01;21.73;;;11.07;;
35592;SDS011;64447;52.140;5.602;2023-07-13T08:29:27;19.13;;;10.15;;
35592;SDS011;64447;52.140;5.602;2023-07-13T08:31:53;17.05;;;10.27;;
35592;SDS011;64447;52.140;5.602;2023-07-13T08:36:45;18.17;;;10.13;;
35592;SDS011;64447;52.140;5.602;2023-07-13T08:39:11;23.25;;;10.32;;
35592;SDS011;64447;52.140;5.602;2023-07-13T08:41:36;17.15;;;10.50;;
35592;SDS011;64447;52.140;5.602;2023-07-13T08:44:03;12.68;;;8.52;;
35592;SDS011;64447;52.140;5.602;2023-07-13T08:46:40;15.15;;;8.80;;
35592;SDS011;64447;52.140;5.602;2023-07-13T09:06:31;8.83;;;4.20;;
35592;SDS011;64447;52.140;5.602;2023-07-13T09:09:09;8.67;;;3.23;;
35592;SDS011;64447;52.140;5.602;2023-07-13T09:11:46;10.57;;;3.83;;
35592;SDS011;64447;52.140;5.602;2023-07-13T17:12:14;6.95;;;2.33;;
35592;SDS011;64447;52.140;5.602;2023-07-13T17:14:40;4.43;;;2.40;;
35592;SDS011;64447;52.140;5.602;2023-07-13T17:20:18;4.33;;;2.30;;
35592;SDS011;64447;52.140;5.602;2023-07-13T17:22:49;3.20;;;2.08;;
35592;SDS011;64447;52.140;5.602;2023-07-13T17:25:16;3.87;;;2.23;;
35592;SDS011;64447;52.140;5.602;2023-07-13T17:27:43;4.70;;;2.35;;
35592;SDS011;64447;52.140;5.602;2023-07-13T17:32:42;4.10;;;2.47;;
35592;SDS011;64447;52.140;5.602;2023-07-13T17:35:14;3.95;;;2.40;;
35592;SDS011;64447;52.140;5.602;2023-07-13T17:37:44;4.47;;;2.45;;
35592;SDS011;64447;52.140;5.602;2023-07-13T17:40:13;4.23;;;2.53;;
35592;SDS011;64447;52.140;5.602;2023-07-13T17:42:42;4.78;;;2.13;;
35592;SDS011;64447;52.140;5.602;2023-07-13T17:45:11;4.18;;;2.50;;
35592;SDS011;64447;52.140;5.602;2023-07-13T17:47:43;8.35;;;2.47;;
35592;SDS011;64447;52.140;5.602;2023-07-13T17:50:12;3.95;;;2.40;;
35592;SDS011;64447;52.140;5.602;2023-07-13T17:52:40;3.42;;;2.10;;
35592;SDS011;64447;52.140;5.602;2023-07-13T17:55:12;4.13;;;2.63;;
35592;SDS011;64447;52.140;5.602;2023-07-13T17:57:40;6.35;;;2.65;;
35592;SDS011;64447;52.140;5.602;2023-07-13T18:00:06;3.70;;;2.38;;
35592;SDS011;64447;52.140;5.602;2023-07-13T18:02:51;3.80;;;2.55;;
35592;SDS011;64447;52.140;5.602;2023-07-13T18:05:19;3.90;;;2.50;;
35592;SDS011;64447;52.140;5.602;2023-07-13T18:07:45;4.57;;;2.42;;
35592;SDS011;64447;52.140;5.602;2023-07-13T18:10:14;4.10;;;2.40;;
35592;SDS011;64447;52.140;5.602;2023-07-13T18:12:40;4.25;;;2.40;;
35592;SDS011;64447;52.140;5.602;2023-07-13T18:15:07;3.55;;;2.28;;
35592;SDS011;64447;52.140;5.602;2023-07-13T18:17:36;4.03;;;2.28;;
35592;SDS011;64447;52.140;5.602;2023-07-13T18:20:02;3.00;;;2.10;;
35592;SDS011;64447;52.140;5.602;2023-07-13T18:22:38;5.57;;;2.05;;
35592;SDS011;64447;52.140;5.602;2023-07-13T18:25:13;4.30;;;2.50;;
35592;SDS011;64447;52.140;5.602;2023-07-13T18:27:40;3.17;;;2.10;;
35592;SDS011;64447;52.140;5.602;2023-07-13T18:34:05;4.60;;;2.13;;
35592;SDS011;64447;52.140;5.602;2023-07-13T18:36:31;4.80;;;2.60;;
35592;SDS011;64447;52.140;5.602;2023-07-13T18:38:57;3.47;;;2.53;;
35592;SDS011;64447;52.140;5.602;2023-07-13T18:41:23;3.80;;;2.23;;
35592;SDS011;64447;52.140;5.602;2023-07-13T18:43:49;3.28;;;2.10;;
35592;SDS011;64447;52.140;5.602;2023-07-13T18:46:19;3.42;;;2.40;;
35592;SDS011;64447;52.140;5.602;2023-07-13T18:48:49;5.60;;;2.42;;
35592;SDS011;64447;52.140;5.602;2023-07-13T18:51:16;3.63;;;2.33;;
35592;SDS011;64447;52.140;5.602;2023-07-13T18:53:42;3.58;;;2.40;;
35592;SDS011;64447;52.140;5.602;2023-07-13T18:56:08;4.50;;;3.30;;
35592;SDS011;64447;52.140;5.602;2023-07-13T19:18:14;5.20;;;2.65;;
35592;SDS011;64447;52.140;5.602;2023-07-13T19:20:41;6.05;;;2.78;;
35592;SDS011;64447;52.140;5.602;2023-07-13T19:23:17;5.32;;;2.85;;
35592;SDS011;64447;52.140;5.602;2023-07-13T19:25:46;4.25;;;2.70;;
35592;SDS011;64447;52.140;5.602;2023-07-13T19:28:45;3.53;;;2.80;;
35592;SDS011;64447;52.140;5.602;2023-07-13T19:31:05;5.93;;;3.17;;
35592;SDS011;64447;52.140;5.602;2023-07-13T19:33:42;5.03;;;2.78;;
35592;SDS011;64447;52.140;5.602;2023-07-13T19:36:12;4.90;;;2.90;;
35592;SDS011;64447;52.140;5.602;2023-07-13T19:38:40;4.03;;;3.03;;
35592;SDS011;64447;52.140;5.602;2023-07-13T19:41:07;3.20;;;2.80;;
35592;SDS011;64447;52.140;5.602;2023-07-13T19:43:43;5.85;;;3.03;;
35592;SDS011;64447;52.140;5.602;2023-07-13T19:48:58;4.80;;;3.07;;
35592;SDS011;64447;52.140;5.602;2023-07-13T19:51:24;4.85;;;3.00;;
35592;SDS011;64447;52.140;5.602;2023-07-13T19:53:51;6.53;;;3.72;;
35592;SDS011;64447;52.140;5.602;2023-07-13T19:56:20;3.97;;;3.20;;
35592;SDS011;64447;52.140;5.602;2023-07-13T19:58:47;5.22;;;3.30;;
35592;SDS011;64447;52.140;5.602;2023-07-13T20:01:13;5.15;;;3.63;;
35592;SDS011;64447;52.140;5.602;2023-07-13T20:03:38;4.80;;;3.40;;
35592;SDS011;64447;52.140;5.602;2023-07-13T20:06:05;6.35;;;3.55;;
35592;SDS011;64447;52.140;5.602;2023-07-13T20:08:57;5.63;;;3.40;;
35592;SDS011;64447;52.140;5.602;2023-07-13T20:11:24;4.75;;;3.40;;
35592;SDS011;64447;52.140;5.602;2023-07-13T20:13:50;6.78;;;3.33;;
35592;SDS011;64447;52.140;5.602;2023-07-13T20:16:16;4.82;;;3.28;;
35592;SDS011;64447;52.140;5.602;2023-07-13T20:59:09;5.90;;;3.90;;
35592;SDS011;64447;52.140;5.602;2023-07-13T21:01:35;5.23;;;4.23;;
35592;SDS011;64447;52.140;5.602;2023-07-13T21:04:04;8.20;;;5.47;;
